createdAt,value
2023-02-08T16:53:13.290Z,5.60
2023-02-08T16:54:14.275Z,5.70
2023-02-08T16:55:14.302Z,6.60
2023-02-08T16:56:14.264Z,8.00
2023-02-08T16:57:14.240Z,7.90
2023-02-08T16:58:14.235Z,7.90
2023-02-08T16:59:14.241Z,7.50
2023-02-08T17:00:14.324Z,8.30
2023-02-08T17:01:14.343Z,8.20
2023-02-08T17:02:14.194Z,8.40
2023-02-08T17:03:14.198Z,8.20
2023-02-08T17:04:14.166Z,8.60
2023-02-08T17:05:14.149Z,7.90
2023-02-08T17:06:14.170Z,8.20
2023-02-08T17:07:14.155Z,8.30
2023-02-08T17:08:14.121Z,9.50
2023-02-08T17:09:14.111Z,10.60
2023-02-08T17:10:14.108Z,9.70
2023-02-08T17:11:14.118Z,9.70
2023-02-08T17:12:22.401Z,10.30
2023-02-08T17:13:20.207Z,11.60
2023-02-08T17:14:14.057Z,11.00
2023-02-08T17:15:14.103Z,10.10
2023-02-08T17:16:14.063Z,12.30
2023-02-08T17:17:14.051Z,12.60
2023-02-08T17:18:14.043Z,13.90
2023-02-08T17:19:13.995Z,10.40
2023-02-08T17:20:13.992Z,10.80
2023-02-08T17:21:13.980Z,11.20
2023-02-08T17:22:13.983Z,12.10
2023-02-08T17:23:13.969Z,14.80
2023-02-08T17:24:13.967Z,12.10
2023-02-08T17:25:13.925Z,12.60
2023-02-08T17:26:13.925Z,13.70
2023-02-08T17:27:13.909Z,12.40
2023-02-08T17:28:13.990Z,13.50
2023-02-08T17:29:13.878Z,13.10
2023-02-08T17:30:13.870Z,12.70
2023-02-08T17:31:13.972Z,14.20
2023-02-08T17:32:13.858Z,13.80
2023-02-08T17:33:13.843Z,12.70
2023-02-08T17:34:13.846Z,13.60
2023-02-08T17:35:13.808Z,13.20
2023-02-08T17:36:13.811Z,12.90
2023-02-08T17:37:13.783Z,12.70
2023-02-08T17:38:13.785Z,11.40
2023-02-08T17:39:13.791Z,11.10
2023-02-08T17:40:13.976Z,11.00
2023-02-08T17:41:13.737Z,10.90
2023-02-08T17:42:13.793Z,11.50
2023-02-08T17:43:13.740Z,12.50
2023-02-08T17:44:13.710Z,13.00
2023-02-08T17:45:13.699Z,13.50
2023-02-08T17:46:13.772Z,13.70
2023-02-08T17:47:13.664Z,15.30
2023-02-08T17:48:13.734Z,13.80
2023-02-08T17:49:13.656Z,13.50
2023-02-08T17:50:13.641Z,12.50
2023-02-08T17:51:16.124Z,13.30
2023-02-08T17:52:13.657Z,12.90
2023-02-08T17:53:13.602Z,12.10
2023-02-08T17:54:13.605Z,12.70
2023-02-08T17:55:13.594Z,13.40
2023-02-08T17:56:13.563Z,12.70
2023-02-08T17:57:13.559Z,12.60
2023-02-08T17:58:13.592Z,13.10
2023-02-08T17:59:13.538Z,13.00
2023-02-08T18:00:13.524Z,12.90
2023-02-08T18:01:13.561Z,13.00
2023-02-08T18:02:13.500Z,13.00
2023-02-08T18:03:13.524Z,13.30
2023-02-08T18:04:13.573Z,14.10
2023-02-08T18:05:13.480Z,14.00
2023-02-08T18:06:13.455Z,13.60
2023-02-08T18:07:13.450Z,15.00
2023-02-08T18:08:13.439Z,15.10
2023-02-08T18:09:13.466Z,15.80
2023-02-08T18:10:13.410Z,17.30
2023-02-08T18:11:13.398Z,19.40
2023-02-08T18:12:13.410Z,20.60
2023-02-08T18:13:13.379Z,17.80
2023-02-08T18:14:13.367Z,16.80
2023-02-08T18:15:13.419Z,15.30
2023-02-08T18:16:13.459Z,18.90
2023-02-08T18:17:13.351Z,20.50
2023-02-08T18:18:13.324Z,18.90
2023-02-08T18:19:13.312Z,19.90
2023-02-08T18:20:13.319Z,19.70
2023-02-08T18:21:13.312Z,20.30
2023-02-08T18:22:13.281Z,20.50
2023-02-08T18:23:13.271Z,19.50
2023-02-08T18:24:13.259Z,18.50
2023-02-08T18:25:13.265Z,19.00
2023-02-08T18:26:13.256Z,22.70
2023-02-08T18:27:13.240Z,23.70
2023-02-08T18:28:13.288Z,21.20
2023-02-08T18:29:13.206Z,22.10
2023-02-08T18:30:13.186Z,22.80
2023-02-08T18:31:13.322Z,22.40
2023-02-08T18:32:13.271Z,20.60
2023-02-08T18:33:13.153Z,20.00
2023-02-08T18:34:13.139Z,21.00
2023-02-08T18:35:13.154Z,21.60
2023-02-08T18:36:13.149Z,22.00
2023-02-08T18:37:13.113Z,20.20
2023-02-08T18:38:13.100Z,20.50
2023-02-08T18:39:13.086Z,20.20
2023-02-08T18:40:13.077Z,21.00
2023-02-08T18:41:13.094Z,20.70
2023-02-08T18:42:13.052Z,21.00
2023-02-08T18:43:13.044Z,22.00
2023-02-08T18:44:13.041Z,19.90
2023-02-08T18:45:13.022Z,21.80
2023-02-08T18:46:13.096Z,23.30
2023-02-08T18:47:12.998Z,23.90
2023-02-08T18:48:12.986Z,22.10
2023-02-08T18:49:12.974Z,21.60
2023-02-08T18:50:12.960Z,20.60
2023-02-08T18:51:12.990Z,20.60
2023-02-08T18:52:12.941Z,21.60
2023-02-08T18:53:12.922Z,22.70
2023-02-08T18:54:12.922Z,22.30
2023-02-08T18:55:12.904Z,22.20
2023-02-08T18:56:12.894Z,19.60
2023-02-08T18:57:12.910Z,20.40
2023-02-08T18:58:12.881Z,19.70
2023-02-08T18:59:12.863Z,19.80
2023-02-08T19:00:12.910Z,21.30
2023-02-08T19:01:12.916Z,20.30
2023-02-08T19:02:12.922Z,20.20
2023-02-08T19:03:12.822Z,22.20
2023-02-08T19:04:12.809Z,20.70
2023-02-08T19:05:12.794Z,21.00
2023-02-08T19:06:12.789Z,21.70
2023-02-08T19:07:12.800Z,22.60
2023-02-08T19:08:12.849Z,22.90
2023-02-08T19:09:12.751Z,27.30
2023-02-08T19:10:12.783Z,21.70
2023-02-08T19:11:14.629Z,21.40
2023-02-08T19:12:12.742Z,23.00
2023-02-08T19:13:12.720Z,23.50
2023-02-08T19:14:12.722Z,23.50
2023-02-08T19:15:12.672Z,23.50
2023-02-08T19:16:12.717Z,23.70
2023-02-08T19:17:14.813Z,23.90
2023-02-08T19:18:12.709Z,22.70
2023-02-08T19:19:12.635Z,22.80
2023-02-08T19:20:12.628Z,23.40
2023-02-08T19:21:12.619Z,22.50
2023-02-08T19:22:12.634Z,23.20
2023-02-08T19:23:12.599Z,24.70
2023-02-08T19:24:14.807Z,23.90
2023-02-08T19:25:12.563Z,24.40
2023-02-08T19:26:12.558Z,24.40
2023-02-08T19:27:12.584Z,25.30
2023-02-08T19:28:12.580Z,24.60
2023-02-08T19:29:12.521Z,23.50
2023-02-08T19:30:12.527Z,24.40
2023-02-08T19:31:12.645Z,26.20
2023-02-08T19:32:12.590Z,23.90
2023-02-08T19:33:12.478Z,24.50
2023-02-08T19:34:12.512Z,23.70
2023-02-08T19:35:12.475Z,23.40
2023-02-08T19:36:12.458Z,24.00
2023-02-08T19:37:12.501Z,23.80
2023-02-08T19:38:12.488Z,25.40
2023-02-08T19:39:12.436Z,24.30
2023-02-08T19:40:12.460Z,23.70
2023-02-08T19:41:12.419Z,26.10
2023-02-08T19:42:12.427Z,26.30
2023-02-08T19:43:12.396Z,26.80
2023-02-08T19:44:12.367Z,26.40
2023-02-08T19:45:12.354Z,25.40
2023-02-08T19:46:12.393Z,27.10
2023-02-08T19:47:12.346Z,26.40
2023-02-08T19:48:12.381Z,26.10
2023-02-08T19:49:12.358Z,27.80
2023-02-08T19:50:12.329Z,26.50
2023-02-08T19:51:12.318Z,27.80
2023-02-08T19:52:12.305Z,27.30
2023-02-08T19:53:12.323Z,25.50
2023-02-08T19:54:12.275Z,26.50
2023-02-08T19:55:12.268Z,26.80
2023-02-08T19:56:12.272Z,26.60
2023-02-08T19:57:12.260Z,29.80
2023-02-08T19:58:12.256Z,27.00
2023-02-08T19:59:12.222Z,27.70
2023-02-08T20:00:22.984Z,29.10
2023-02-08T20:01:12.290Z,31.20
2023-02-08T20:02:12.237Z,29.10
2023-02-08T20:03:21.181Z,28.00
2023-02-08T20:04:12.144Z,27.60
2023-02-08T20:05:12.159Z,28.40
2023-02-08T20:06:12.123Z,26.30
2023-02-08T20:07:12.141Z,26.40
2023-02-08T20:08:12.154Z,27.30
2023-02-08T20:09:12.109Z,26.60
2023-02-08T20:10:12.075Z,28.10
2023-02-08T20:11:12.096Z,25.80
2023-02-08T20:12:12.074Z,26.60
2023-02-08T20:13:12.088Z,29.00
2023-02-08T20:14:12.103Z,27.80
2023-02-08T20:15:12.046Z,28.10
2023-02-08T20:16:12.088Z,29.90
2023-02-08T20:17:12.011Z,28.20
2023-02-08T20:18:12.011Z,28.40
2023-02-08T20:19:12.001Z,28.70
2023-02-08T20:20:11.969Z,28.10
2023-02-08T20:21:11.947Z,27.90
2023-02-08T20:22:11.964Z,27.50
2023-02-08T20:23:22.056Z,26.10
2023-02-08T20:24:11.991Z,26.20
2023-02-08T20:25:11.920Z,26.50
2023-02-08T20:26:11.927Z,26.20
2023-02-08T20:27:11.889Z,26.50
2023-02-08T20:28:11.914Z,26.00
2023-02-08T20:29:11.906Z,25.80
2023-02-08T20:30:11.861Z,24.30
2023-02-08T20:31:11.933Z,25.50
2023-02-08T20:32:11.931Z,25.50
2023-02-08T20:33:11.832Z,24.10
2023-02-08T20:34:11.851Z,24.20
2023-02-08T20:35:11.840Z,23.60
2023-02-08T20:36:11.808Z,22.30
2023-02-08T20:37:11.777Z,24.40
2023-02-08T20:38:11.765Z,25.00
2023-02-08T20:39:11.793Z,23.10
2023-02-08T20:40:11.750Z,22.20
2023-02-08T20:41:11.718Z,23.90
2023-02-08T20:42:11.712Z,20.70
2023-02-08T20:43:11.727Z,21.20
2023-02-08T20:44:11.702Z,23.50
2023-02-08T20:45:11.724Z,23.80
2023-02-08T20:46:11.714Z,22.40
2023-02-08T20:47:11.711Z,22.60
2023-02-08T20:48:11.700Z,22.10
2023-02-08T20:49:11.652Z,22.10
2023-02-08T20:50:18.840Z,21.10
2023-02-08T20:51:11.656Z,23.10
2023-02-08T20:52:11.605Z,22.00
2023-02-08T20:53:11.609Z,23.20
2023-02-08T20:54:11.590Z,23.20
2023-02-08T20:55:11.655Z,23.00
2023-02-08T20:56:11.569Z,23.00
2023-02-08T20:57:11.565Z,22.80
2023-02-08T20:58:11.563Z,22.50
2023-02-08T20:59:11.566Z,21.40
2023-02-08T21:00:11.549Z,21.70
2023-02-08T21:01:11.618Z,21.20
2023-02-08T21:02:11.540Z,21.10
2023-02-08T21:03:11.495Z,20.90
2023-02-08T21:04:11.506Z,21.70
2023-02-08T21:05:11.508Z,19.90
2023-02-08T21:06:11.491Z,20.60
2023-02-08T21:07:11.466Z,21.40
2023-02-08T21:08:11.451Z,21.50
2023-02-08T21:09:11.447Z,21.00
2023-02-08T21:10:11.480Z,20.70
2023-02-08T21:11:11.447Z,20.90
2023-02-08T21:12:11.410Z,20.50
2023-02-08T21:13:11.393Z,19.90
2023-02-08T21:14:11.379Z,20.40
2023-02-08T21:15:11.407Z,21.30
2023-02-08T21:16:11.392Z,20.30
2023-02-08T21:17:11.381Z,19.60
2023-02-08T21:18:11.449Z,19.70
2023-02-08T21:19:11.316Z,19.40
2023-02-08T21:20:11.897Z,19.80
2023-02-08T21:21:11.308Z,20.10
2023-02-08T21:22:11.271Z,19.50
2023-02-08T21:23:11.307Z,18.90
2023-02-08T21:24:11.324Z,20.50
2023-02-08T21:25:11.306Z,18.90
2023-02-08T21:26:11.244Z,18.70
2023-02-08T21:27:11.244Z,19.40
2023-02-08T21:28:11.364Z,19.80
2023-02-08T21:29:11.213Z,19.50
2023-02-08T21:30:11.234Z,20.60
2023-02-08T21:31:11.295Z,20.50
2023-02-08T21:32:11.161Z,18.90
2023-02-08T21:33:11.163Z,18.80
2023-02-08T21:34:11.188Z,19.10
2023-02-08T21:35:11.158Z,18.90
2023-02-08T21:36:11.174Z,18.30
2023-02-08T21:37:11.174Z,17.80
2023-02-08T21:38:11.141Z,18.40
2023-02-08T21:39:11.093Z,19.00
2023-02-08T21:40:11.146Z,19.20
2023-02-08T21:41:11.117Z,18.60
2023-02-08T21:42:11.060Z,18.00
2023-02-08T21:43:11.044Z,18.20
2023-02-08T21:44:11.033Z,18.30
2023-02-08T21:45:11.038Z,17.90
2023-02-08T21:46:11.210Z,18.40
2023-02-08T21:47:11.001Z,18.30
2023-02-08T21:48:11.006Z,18.90
2023-02-08T21:49:10.995Z,18.00
2023-02-08T21:50:10.984Z,20.20
2023-02-08T21:51:10.997Z,23.60
2023-02-08T21:52:10.994Z,17.80
2023-02-08T21:53:10.937Z,19.70
2023-02-08T21:54:10.935Z,18.80
2023-02-08T21:55:10.917Z,18.80
2023-02-08T21:56:10.921Z,18.90
2023-02-08T21:57:10.900Z,19.20
2023-02-08T21:58:10.896Z,19.90
2023-02-08T21:59:10.881Z,18.80
2023-02-08T22:00:10.848Z,20.10
2023-02-08T22:01:11.689Z,20.40
2023-02-08T22:02:10.872Z,19.60
2023-02-08T22:03:10.903Z,19.50
2023-02-08T22:04:10.823Z,20.20
2023-02-08T22:05:10.795Z,21.20
2023-02-08T22:06:10.851Z,20.80
2023-02-08T22:07:10.779Z,21.00
2023-02-08T22:08:10.781Z,20.70
2023-02-08T22:09:10.785Z,21.10
2023-02-08T22:10:10.746Z,24.20
2023-02-08T22:11:10.782Z,25.10
2023-02-08T22:12:10.735Z,21.70
2023-02-08T22:13:10.721Z,22.40
2023-02-08T22:14:10.717Z,22.80
2023-02-08T22:15:10.707Z,22.20
2023-02-08T22:16:10.759Z,21.60
2023-02-08T22:17:10.722Z,21.50
2023-02-08T22:18:10.674Z,20.80
2023-02-08T22:19:10.658Z,20.60
2023-02-08T22:20:10.649Z,20.30
2023-02-08T22:21:10.621Z,19.00
2023-02-08T22:22:10.636Z,19.10
2023-02-08T22:23:10.655Z,20.20
2023-02-08T22:24:10.587Z,19.40
2023-02-08T22:25:10.598Z,19.40
2023-02-08T22:26:10.580Z,18.50
2023-02-08T22:27:10.587Z,19.70
2023-02-08T22:28:10.639Z,18.20
2023-02-08T22:29:10.589Z,18.70
2023-02-08T22:30:10.514Z,18.20
2023-02-08T22:31:10.684Z,19.00
2023-02-08T22:32:10.510Z,22.20
2023-02-08T22:33:10.509Z,19.70
2023-02-08T22:34:10.543Z,19.60
2023-02-08T22:35:10.497Z,18.30
2023-02-08T22:36:10.451Z,17.50
2023-02-08T22:37:10.471Z,17.90
2023-02-08T22:38:10.428Z,17.70
2023-02-08T22:39:10.423Z,18.20
2023-02-08T22:40:10.835Z,18.30
2023-02-08T22:41:10.423Z,18.10
2023-02-08T22:42:10.397Z,17.60
2023-02-08T22:43:10.393Z,17.50
2023-02-08T22:44:10.377Z,17.50
2023-02-08T22:45:10.396Z,17.70
2023-02-08T22:46:10.439Z,17.10
2023-02-08T22:47:10.348Z,16.70
2023-02-08T22:48:10.339Z,16.70
2023-02-08T22:49:10.305Z,16.90
2023-02-08T22:50:10.300Z,16.20
2023-02-08T22:51:10.322Z,16.30
2023-02-08T22:52:10.279Z,16.00
2023-02-08T22:53:10.271Z,16.00
2023-02-08T22:54:10.250Z,16.40
2023-02-08T22:55:10.238Z,16.10
2023-02-08T22:56:10.280Z,15.00
2023-02-08T22:57:10.272Z,15.00
2023-02-08T22:58:10.234Z,15.00
2023-02-08T22:59:10.203Z,15.50
2023-02-08T23:00:10.191Z,15.40
2023-02-08T23:01:10.203Z,14.70
2023-02-08T23:02:10.180Z,14.80
2023-02-08T23:03:10.276Z,14.40
2023-02-08T23:04:10.170Z,15.20
2023-02-08T23:05:10.153Z,15.20
2023-02-08T23:06:10.140Z,14.50
2023-02-08T23:07:10.130Z,14.50
2023-02-08T23:08:10.158Z,13.90
2023-02-08T23:09:10.105Z,14.10
2023-02-08T23:10:10.097Z,13.90
2023-02-08T23:11:10.066Z,13.90
2023-02-08T23:12:10.058Z,14.30
2023-02-08T23:13:10.043Z,14.20
2023-02-08T23:14:10.070Z,13.70
2023-02-08T23:15:10.021Z,14.40
2023-02-08T23:16:10.110Z,13.20
2023-02-08T23:17:10.010Z,13.50
2023-02-08T23:18:10.001Z,13.30
2023-02-08T23:19:09.987Z,13.40
2023-02-08T23:20:10.028Z,13.80
2023-02-08T23:21:09.951Z,12.10
2023-02-08T23:22:09.966Z,12.30
2023-02-08T23:23:09.955Z,11.30
2023-02-08T23:24:09.908Z,11.60
2023-02-08T23:25:10.314Z,12.10
2023-02-08T23:26:09.924Z,12.60
2023-02-08T23:27:09.914Z,11.90
2023-02-08T23:28:09.923Z,11.40
2023-02-08T23:29:09.903Z,11.80
2023-02-08T23:30:09.888Z,11.60
2023-02-08T23:31:10.022Z,11.70
2023-02-08T23:32:09.901Z,10.90
2023-02-08T23:33:09.835Z,11.10
2023-02-08T23:34:09.830Z,11.40
2023-02-08T23:35:09.808Z,11.60
2023-02-08T23:36:09.811Z,10.60
2023-02-08T23:37:09.767Z,10.50
2023-02-08T23:38:09.779Z,10.60
2023-02-08T23:39:09.758Z,10.20
2023-02-08T23:40:09.763Z,10.70
2023-02-08T23:41:09.798Z,10.60
2023-02-08T23:42:09.727Z,10.30
2023-02-08T23:43:09.716Z,10.50
2023-02-08T23:44:09.713Z,10.90
2023-02-08T23:45:09.721Z,10.90
2023-02-08T23:46:09.681Z,10.50
2023-02-08T23:47:10.040Z,11.50
2023-02-08T23:48:09.653Z,11.50
2023-02-08T23:49:09.640Z,11.30
2023-02-08T23:50:09.668Z,10.90
2023-02-08T23:51:09.654Z,11.70
2023-02-08T23:52:09.628Z,11.50
2023-02-08T23:53:09.651Z,12.20
2023-02-08T23:54:09.593Z,12.10
2023-02-08T23:55:09.584Z,12.10
2023-02-08T23:56:09.568Z,11.20
2023-02-08T23:57:09.560Z,12.00
2023-02-08T23:58:09.615Z,11.70
2023-02-08T23:59:09.544Z,12.70
